createdAt,value
2019-01-09T00:01:23.548Z,1.20
2019-01-09T00:03:52.545Z,1.20
2019-01-09T00:06:21.548Z,1.20
2019-01-09T00:08:50.580Z,1.20
2019-01-09T00:11:19.800Z,1.20
2019-01-09T00:13:49.014Z,1.20
2019-01-09T00:16:17.986Z,1.20
2019-01-09T00:18:46.974Z,1.30
2019-01-09T00:21:15.934Z,1.30
2019-01-09T00:23:44.923Z,1.20
2019-01-09T00:26:13.886Z,1.20
2019-01-09T00:28:42.786Z,1.30
2019-01-09T00:31:11.851Z,1.30
2019-01-09T00:33:41.017Z,1.30
2019-01-09T00:36:09.847Z,1.20
2019-01-09T00:38:40.549Z,1.20
2019-01-09T00:41:09.768Z,1.20
2019-01-09T00:43:38.788Z,1.30
2019-01-09T00:46:08.205Z,1.30
2019-01-09T00:48:37.209Z,1.20
2019-01-09T00:51:07.533Z,1.20
2019-01-09T00:53:36.841Z,1.20
2019-01-09T00:56:06.117Z,1.20
2019-01-09T00:58:35.304Z,1.20
2019-01-09T01:01:05.656Z,1.20
2019-01-09T01:04:08.454Z,1.20
2019-01-09T01:07:29.835Z,1.30
2019-01-09T01:10:31.703Z,1.30
2019-01-09T01:13:24.425Z,1.20
2019-01-09T01:16:29.377Z,1.20
2019-01-09T01:19:42.344Z,1.30
2019-01-09T01:22:55.588Z,1.20
2019-01-09T01:25:35.012Z,1.10
2019-01-09T01:28:38.428Z,1.10
2019-01-09T01:32:01.573Z,1.10
2019-01-09T01:35:14.732Z,1.10
2019-01-09T01:38:05.361Z,1.10
2019-01-09T01:40:41.732Z,1.00
2019-01-09T01:43:34.309Z,1.00
2019-01-09T01:46:44.691Z,1.00
2019-01-09T01:49:53.268Z,1.00
2019-01-09T01:53:06.455Z,1.00
2019-01-09T01:56:07.384Z,0.90
2019-01-09T01:58:58.883Z,0.90
2019-01-09T02:02:00.755Z,0.90
2019-01-09T02:04:49.089Z,0.90
2019-01-09T02:07:54.776Z,1.00
2019-01-09T02:10:37.577Z,0.90
2019-01-09T02:13:35.111Z,0.90
2019-01-09T02:16:47.464Z,0.90
2019-01-09T02:19:24.533Z,0.80
2019-01-09T02:22:35.769Z,0.70
2019-01-09T02:25:32.937Z,0.70
2019-01-09T02:28:30.742Z,0.70
2019-01-09T02:31:24.678Z,0.70
2019-01-09T02:33:53.867Z,0.60
2019-01-09T02:36:23.004Z,0.60
2019-01-09T02:38:52.201Z,0.60
2019-01-09T02:41:21.279Z,0.60
2019-01-09T02:43:50.227Z,0.70
2019-01-09T02:46:19.241Z,0.60
2019-01-09T02:48:48.900Z,0.60
2019-01-09T02:51:17.804Z,0.60
2019-01-09T02:53:46.746Z,0.70
2019-01-09T02:56:15.756Z,0.70
2019-01-09T02:58:44.930Z,0.70
2019-01-09T03:01:13.885Z,0.70
2019-01-09T03:03:42.800Z,0.70
2019-01-09T03:06:11.766Z,0.70
2019-01-09T03:08:40.893Z,0.60
2019-01-09T03:11:09.903Z,0.60
2019-01-09T03:13:40.240Z,0.60
2019-01-09T03:16:09.162Z,0.60
2019-01-09T03:18:38.054Z,0.60
2019-01-09T03:21:07.260Z,0.60
2019-01-09T03:23:36.643Z,0.60
2019-01-09T03:26:05.517Z,0.60
2019-01-09T03:28:34.480Z,0.60
2019-01-09T03:31:03.489Z,0.60
2019-01-09T03:33:32.543Z,0.60
2019-01-09T03:36:01.405Z,0.60
2019-01-09T03:38:31.538Z,0.60
2019-01-09T03:41:00.606Z,0.60
2019-01-09T03:43:29.671Z,0.60
2019-01-09T03:45:58.628Z,0.60
2019-01-09T03:48:27.614Z,0.60
2019-01-09T03:50:56.513Z,0.60
2019-01-09T03:53:25.353Z,0.60
2019-01-09T03:55:54.509Z,0.60
2019-01-09T03:58:23.318Z,0.60
2019-01-09T04:00:52.163Z,0.70
2019-01-09T04:03:21.271Z,0.70
2019-01-09T04:05:50.396Z,0.60
2019-01-09T04:08:19.212Z,0.70
2019-01-09T04:10:48.130Z,0.60
2019-01-09T04:13:17.016Z,0.70
2019-01-09T04:15:45.905Z,0.70
2019-01-09T04:18:15.074Z,0.70
2019-01-09T04:20:44.040Z,0.70
2019-01-09T04:23:13.084Z,0.60
2019-01-09T04:25:41.945Z,0.70
2019-01-09T04:28:11.311Z,0.70
2019-01-09T04:30:40.205Z,0.60
2019-01-09T04:33:09.464Z,0.60
2019-01-09T04:35:38.322Z,0.70
2019-01-09T04:38:07.212Z,0.70
2019-01-09T04:40:37.429Z,0.60
2019-01-09T04:43:06.415Z,0.60
2019-01-09T04:45:35.309Z,0.60
2019-01-09T04:48:04.211Z,0.60
2019-01-09T04:50:33.125Z,0.60
2019-01-09T04:53:02.057Z,0.70
2019-01-09T04:55:31.086Z,0.60
2019-01-09T04:58:00.056Z,0.70
2019-01-09T05:00:29.074Z,0.70
2019-01-09T05:02:58.219Z,0.70
2019-01-09T05:05:27.403Z,0.60
2019-01-09T05:07:56.828Z,0.60
2019-01-09T05:10:25.775Z,0.60
2019-01-09T05:12:54.700Z,0.70
2019-01-09T05:15:23.513Z,0.70
2019-01-09T05:17:53.121Z,0.60
2019-01-09T05:20:25.272Z,0.60
2019-01-09T05:22:55.375Z,0.60
2019-01-09T05:25:42.333Z,0.60
2019-01-09T05:28:11.901Z,0.60
2019-01-09T05:30:41.766Z,0.60
2019-01-09T05:33:11.384Z,0.60
2019-01-09T05:35:40.678Z,0.60
2019-01-09T05:38:16.233Z,0.60
2019-01-09T05:40:45.608Z,0.60
2019-01-09T05:43:16.218Z,0.70
2019-01-09T05:45:45.080Z,0.60
2019-01-09T05:48:14.276Z,0.60
2019-01-09T05:50:43.203Z,0.60
2019-01-09T05:53:18.217Z,0.60
2019-01-09T05:55:47.433Z,0.60
2019-01-09T05:58:23.289Z,0.60
2019-01-09T06:00:52.929Z,0.60
2019-01-09T06:03:22.491Z,0.60
2019-01-09T06:05:52.278Z,0.60
2019-01-09T06:08:21.248Z,0.70
2019-01-09T06:10:50.171Z,0.70
2019-01-09T06:13:19.240Z,0.70
2019-01-09T06:15:48.755Z,0.70
2019-01-09T06:18:24.109Z,0.70
2019-01-09T06:20:54.163Z,0.70
2019-01-09T06:23:23.939Z,0.70
2019-01-09T06:25:59.250Z,0.60
2019-01-09T06:28:28.927Z,0.60
2019-01-09T06:31:00.547Z,0.70
2019-01-09T06:33:30.437Z,0.70
2019-01-09T06:36:07.614Z,0.70
2019-01-09T06:38:33.965Z,0.70
2019-01-09T06:41:11.940Z,0.70
2019-01-09T06:43:43.664Z,0.60
2019-01-09T06:46:20.234Z,0.60
2019-01-09T06:48:57.904Z,0.60
2019-01-09T06:51:28.171Z,0.70
2019-01-09T06:53:57.134Z,0.60
2019-01-09T06:56:25.973Z,0.70
2019-01-09T06:58:54.938Z,0.70
2019-01-09T07:01:24.060Z,0.60
2019-01-09T07:03:53.174Z,0.60
2019-01-09T07:06:22.088Z,0.60
2019-01-09T07:08:51.248Z,0.60
2019-01-09T07:11:20.101Z,0.60
2019-01-09T07:13:48.963Z,0.60
2019-01-09T07:16:18.409Z,0.70
2019-01-09T07:18:47.303Z,0.60
2019-01-09T07:21:16.150Z,0.70
2019-01-09T07:23:44.972Z,0.60
2019-01-09T07:26:13.833Z,0.60
2019-01-09T07:28:42.667Z,0.60
2019-01-09T07:31:11.605Z,0.60
2019-01-09T07:33:40.432Z,0.60
2019-01-09T07:36:09.619Z,0.60
2019-01-09T07:38:38.602Z,0.60
2019-01-09T07:41:07.665Z,0.70
2019-01-09T07:43:36.502Z,0.70
2019-01-09T07:46:05.451Z,0.70
2019-01-09T07:48:34.610Z,0.60
2019-01-09T07:51:03.654Z,0.60
2019-01-09T07:53:32.632Z,0.60
2019-01-09T07:56:02.132Z,0.60
2019-01-09T07:58:31.349Z,0.60
2019-01-09T08:01:00.358Z,0.70
2019-01-09T08:03:29.272Z,0.60
2019-01-09T08:05:58.483Z,0.60
2019-01-09T08:08:27.578Z,0.60
2019-01-09T08:10:56.632Z,0.60
2019-01-09T08:13:25.535Z,0.60
2019-01-09T08:15:54.696Z,0.70
2019-01-09T08:18:23.507Z,0.70
2019-01-09T08:20:52.345Z,0.70
2019-01-09T08:23:21.168Z,0.70
2019-01-09T08:25:50.078Z,0.70
2019-01-09T08:28:19.033Z,0.70
2019-01-09T08:30:47.941Z,0.70
2019-01-09T08:33:16.984Z,0.70
2019-01-09T08:35:46.346Z,0.70
2019-01-09T08:38:15.684Z,0.80
2019-01-09T08:40:44.991Z,0.70
2019-01-09T08:43:13.980Z,0.70
2019-01-09T08:45:42.895Z,0.80
2019-01-09T08:48:11.763Z,0.70
2019-01-09T08:50:40.839Z,0.70
2019-01-09T08:53:09.699Z,0.70
2019-01-09T08:55:38.860Z,0.70
2019-01-09T08:58:07.775Z,0.70
2019-01-09T09:00:36.728Z,0.70
2019-01-09T09:03:05.757Z,0.70
2019-01-09T09:05:34.936Z,0.70
2019-01-09T09:08:11.829Z,0.70
2019-01-09T09:10:38.424Z,0.70
2019-01-09T09:13:07.672Z,0.60
2019-01-09T09:15:36.568Z,0.60
2019-01-09T09:18:05.690Z,0.60
2019-01-09T09:20:37.092Z,0.60
2019-01-09T09:23:06.365Z,0.70
2019-01-09T09:25:37.989Z,0.60
2019-01-09T09:28:06.952Z,0.60
2019-01-09T09:30:35.882Z,0.60
2019-01-09T09:33:07.687Z,0.60
2019-01-09T09:35:47.578Z,0.70
2019-01-09T09:38:26.926Z,0.60
2019-01-09T09:40:55.737Z,0.70
2019-01-09T09:43:25.059Z,0.70
2019-01-09T09:45:53.926Z,0.70
2019-01-09T09:48:22.979Z,0.70
2019-01-09T09:50:51.985Z,0.70
2019-01-09T09:53:20.748Z,0.80
2019-01-09T09:55:49.578Z,0.80
2019-01-09T09:58:18.344Z,0.70
2019-01-09T10:00:47.243Z,0.60
2019-01-09T10:03:15.979Z,0.50
2019-01-09T10:05:44.759Z,0.60
2019-01-09T10:08:13.553Z,0.70
2019-01-09T10:10:42.647Z,0.80
2019-01-09T10:13:11.391Z,0.70
2019-01-09T10:15:40.130Z,0.70
2019-01-09T10:18:08.970Z,0.70
2019-01-09T10:20:37.727Z,0.70
2019-01-09T10:23:06.615Z,0.70
2019-01-09T10:25:35.478Z,0.70
2019-01-09T10:28:04.471Z,0.70
2019-01-09T10:30:33.256Z,0.70
2019-01-09T10:33:02.255Z,0.80
2019-01-09T10:35:31.268Z,0.80
2019-01-09T10:38:00.110Z,0.80
2019-01-09T10:40:36.132Z,0.70
2019-01-09T10:42:59.716Z,0.70
2019-01-09T10:45:28.505Z,0.80
2019-01-09T10:47:57.328Z,0.90
2019-01-09T10:50:26.571Z,0.90
2019-01-09T10:52:55.347Z,0.80
2019-01-09T10:55:24.208Z,0.80
2019-01-09T10:57:52.962Z,0.80
2019-01-09T11:00:23.823Z,0.90
2019-01-09T11:02:52.611Z,0.80
2019-01-09T11:05:21.466Z,0.80
2019-01-09T11:07:50.286Z,0.70
2019-01-09T11:10:19.411Z,0.60
2019-01-09T11:12:48.257Z,0.70
2019-01-09T11:15:17.246Z,0.70
2019-01-09T11:17:46.414Z,0.70
2019-01-09T11:20:17.252Z,0.70
2019-01-09T11:22:46.018Z,0.70
2019-01-09T11:25:20.340Z,0.70
2019-01-09T11:27:49.281Z,0.70
2019-01-09T11:30:18.387Z,0.70
2019-01-09T11:32:47.227Z,0.70
2019-01-09T11:35:17.399Z,0.70
2019-01-09T11:37:46.247Z,0.80
2019-01-09T11:40:16.340Z,0.70
2019-01-09T11:42:45.203Z,0.70
2019-01-09T11:45:15.899Z,0.70
2019-01-09T11:47:44.840Z,0.70
2019-01-09T11:50:14.082Z,0.80
2019-01-09T11:52:42.982Z,0.70
2019-01-09T11:55:12.804Z,0.70
2019-01-09T11:57:41.652Z,0.70
2019-01-09T12:00:22.006Z,0.70
2019-01-09T12:02:50.764Z,0.70
2019-01-09T12:05:19.592Z,0.70
2019-01-09T12:07:48.943Z,0.70
2019-01-09T12:10:19.452Z,0.80
2019-01-09T12:12:48.612Z,0.70
2019-01-09T12:15:18.021Z,0.70
2019-01-09T12:17:47.244Z,0.80
2019-01-09T12:20:17.089Z,0.80
2019-01-09T12:22:46.337Z,0.80
2019-01-09T12:25:15.339Z,0.70
2019-01-09T12:27:44.391Z,0.70
2019-01-09T12:30:19.719Z,0.60
2019-01-09T12:32:48.795Z,0.70
2019-01-09T12:35:17.813Z,0.70
2019-01-09T12:37:46.827Z,0.80
2019-01-09T12:40:16.279Z,0.80
2019-01-09T12:42:45.026Z,0.90
2019-01-09T12:45:14.732Z,0.80
2019-01-09T12:47:43.760Z,0.80
2019-01-09T12:50:15.687Z,0.80
2019-01-09T12:52:44.471Z,0.80
2019-01-09T12:55:13.488Z,0.80
2019-01-09T12:57:42.246Z,0.70
2019-01-09T13:00:15.370Z,0.80
2019-01-09T13:02:44.124Z,0.80
2019-01-09T13:05:13.110Z,0.80
2019-01-09T13:07:41.995Z,0.70
2019-01-09T13:10:10.931Z,0.80
2019-01-09T13:12:39.778Z,0.70
2019-01-09T13:15:08.972Z,0.70
2019-01-09T13:17:37.798Z,0.70
2019-01-09T13:20:08.325Z,0.70
2019-01-09T13:22:37.305Z,0.70
2019-01-09T13:25:06.904Z,0.70
2019-01-09T13:27:35.717Z,0.80
2019-01-09T13:30:06.778Z,0.70
2019-01-09T13:32:35.522Z,0.70
2019-01-09T13:35:04.855Z,0.70
2019-01-09T13:37:34.131Z,0.70
2019-01-09T13:40:02.920Z,0.80
2019-01-09T13:42:31.901Z,0.80
2019-01-09T13:45:01.010Z,0.80
2019-01-09T13:47:29.839Z,0.80
2019-01-09T13:49:58.599Z,0.70
2019-01-09T13:52:27.330Z,0.80
2019-01-09T13:54:56.128Z,0.80
2019-01-09T13:57:24.903Z,0.80
2019-01-09T13:59:53.640Z,0.90
2019-01-09T14:02:22.401Z,0.90
2019-01-09T14:04:51.444Z,0.80
2019-01-09T14:07:20.190Z,0.80
2019-01-09T14:09:48.931Z,0.80
2019-01-09T14:12:18.186Z,0.80
2019-01-09T14:14:46.936Z,0.80
2019-01-09T14:17:15.734Z,0.90
2019-01-09T14:19:44.543Z,0.80
2019-01-09T14:22:13.389Z,0.80
2019-01-09T14:24:42.207Z,0.90
2019-01-09T14:27:11.178Z,0.90
2019-01-09T14:29:39.915Z,0.90
2019-01-09T14:32:08.709Z,0.90
2019-01-09T14:34:37.463Z,0.90
2019-01-09T14:37:06.316Z,0.90
2019-01-09T14:39:35.164Z,0.80
2019-01-09T14:42:04.048Z,0.90
2019-01-09T14:44:32.787Z,0.90
2019-01-09T14:47:01.646Z,0.90
2019-01-09T14:49:38.858Z,0.90
2019-01-09T14:52:03.527Z,0.90
2019-01-09T14:54:32.527Z,0.90
2019-01-09T14:57:01.548Z,0.90
2019-01-09T14:59:30.514Z,0.90
2019-01-09T15:01:59.270Z,1.00
2019-01-09T15:04:28.011Z,1.00
2019-01-09T15:06:56.995Z,1.00
2019-01-09T15:09:25.760Z,0.90
2019-01-09T15:11:54.868Z,0.90
2019-01-09T15:14:23.897Z,0.90
2019-01-09T15:16:52.960Z,0.90
2019-01-09T15:19:21.728Z,0.80
2019-01-09T15:21:50.581Z,0.90
2019-01-09T15:24:19.403Z,0.90
2019-01-09T15:26:48.169Z,0.90
2019-01-09T15:29:16.994Z,0.80
2019-01-09T15:31:45.832Z,0.80
2019-01-09T15:34:14.665Z,0.80
2019-01-09T15:36:43.520Z,0.90
2019-01-09T15:39:12.274Z,0.80
2019-01-09T15:41:41.039Z,0.80
2019-01-09T15:44:12.115Z,0.80
2019-01-09T15:46:44.978Z,0.90
2019-01-09T15:49:15.082Z,0.80
2019-01-09T15:51:44.816Z,0.80
2019-01-09T15:54:14.694Z,0.90
2019-01-09T15:56:44.255Z,0.90
2019-01-09T15:59:14.129Z,0.80
2019-01-09T16:01:46.302Z,0.80
2019-01-09T16:04:15.426Z,0.90
2019-01-09T16:06:45.147Z,0.90
2019-01-09T16:09:16.009Z,0.90
2019-01-09T16:11:50.257Z,0.90
2019-01-09T16:14:19.158Z,0.90
2019-01-09T16:16:48.153Z,0.90
2019-01-09T16:19:17.252Z,0.90
2019-01-09T16:21:47.867Z,0.90
2019-01-09T16:24:17.080Z,0.90
2019-01-09T16:26:45.939Z,0.90
2019-01-09T16:29:15.008Z,0.90
2019-01-09T16:31:44.273Z,1.00
2019-01-09T16:34:13.311Z,0.90
2019-01-09T16:36:42.721Z,1.00
2019-01-09T16:39:11.815Z,0.90
2019-01-09T16:41:48.875Z,0.90
2019-01-09T16:44:18.156Z,0.90
2019-01-09T16:46:47.280Z,0.90
2019-01-09T16:49:27.899Z,0.90
2019-01-09T16:51:51.641Z,0.90
2019-01-09T16:54:21.059Z,0.90
2019-01-09T16:56:50.238Z,0.90
2019-01-09T16:59:25.838Z,0.90
2019-01-09T17:01:56.456Z,0.90
2019-01-09T17:04:38.296Z,0.90
2019-01-09T17:07:19.538Z,0.90
2019-01-09T17:09:48.757Z,0.80
2019-01-09T17:12:17.969Z,0.70
2019-01-09T17:14:48.447Z,0.80
2019-01-09T17:17:17.617Z,0.80
2019-01-09T17:19:47.186Z,0.90
2019-01-09T17:22:16.380Z,0.80
2019-01-09T17:24:46.200Z,0.80
2019-01-09T17:27:15.639Z,0.80
2019-01-09T17:29:44.952Z,0.70
2019-01-09T17:32:14.792Z,0.70
2019-01-09T17:34:44.423Z,0.70
2019-01-09T17:37:14.001Z,0.70
2019-01-09T17:39:44.541Z,0.70
2019-01-09T17:42:21.392Z,0.80
2019-01-09T17:44:51.532Z,0.70
2019-01-09T17:47:21.259Z,0.70
2019-01-09T17:49:50.900Z,0.70
2019-01-09T17:52:21.294Z,0.80
2019-01-09T17:54:50.212Z,0.80
2019-01-09T17:57:21.163Z,0.80
2019-01-09T17:59:57.901Z,0.80
2019-01-09T18:02:32.208Z,0.80
2019-01-09T18:05:07.170Z,0.80
2019-01-09T18:07:43.613Z,0.70
2019-01-09T18:10:20.096Z,0.70
2019-01-09T18:12:49.408Z,0.70
2019-01-09T18:15:20.205Z,0.70
2019-01-09T18:17:49.427Z,0.70
2019-01-09T18:20:29.121Z,0.70
2019-01-09T18:22:58.267Z,0.70
2019-01-09T18:25:28.524Z,0.80
2019-01-09T18:27:57.753Z,0.70
2019-01-09T18:31:15.155Z,0.70
2019-01-09T18:34:12.845Z,0.70
2019-01-09T18:37:30.623Z,0.70
2019-01-09T18:40:47.873Z,0.70
2019-01-09T18:43:26.019Z,0.70
2019-01-09T18:46:17.935Z,0.70
2019-01-09T18:49:13.441Z,0.70
2019-01-09T18:52:05.074Z,0.70
2019-01-09T18:54:34.077Z,0.70
2019-01-09T18:57:03.151Z,0.70
2019-01-09T18:59:32.251Z,0.70
2019-01-09T19:02:01.338Z,0.70
2019-01-09T19:04:30.684Z,0.70
2019-01-09T19:07:00.090Z,0.70
2019-01-09T19:09:29.182Z,0.80
2019-01-09T19:11:58.115Z,0.80
2019-01-09T19:14:30.326Z,0.80
2019-01-09T19:16:59.694Z,0.80
2019-01-09T19:19:28.845Z,0.80
2019-01-09T19:21:58.331Z,0.80
2019-01-09T19:24:27.758Z,0.80
2019-01-09T19:26:57.018Z,0.80
2019-01-09T19:29:25.964Z,0.90
2019-01-09T19:31:55.359Z,0.80
2019-01-09T19:34:24.438Z,0.90
2019-01-09T19:36:53.294Z,0.90
2019-01-09T19:39:23.098Z,0.80
2019-01-09T19:41:52.059Z,0.90
2019-01-09T19:44:21.116Z,0.90
2019-01-09T19:46:51.056Z,0.80
2019-01-09T19:49:20.087Z,0.90
2019-01-09T19:51:49.331Z,0.90
2019-01-09T19:54:18.478Z,0.90
2019-01-09T19:56:47.464Z,0.90
2019-01-09T19:59:17.196Z,0.90
2019-01-09T20:01:46.240Z,0.90
2019-01-09T20:04:15.192Z,1.00
2019-01-09T20:06:49.019Z,1.00
2019-01-09T20:09:18.640Z,1.00
2019-01-09T20:11:47.732Z,1.00
2019-01-09T20:14:16.897Z,1.00
2019-01-09T20:16:45.957Z,1.00
2019-01-09T20:19:16.234Z,1.00
2019-01-09T20:21:45.335Z,1.00
2019-01-09T20:24:14.510Z,1.00
2019-01-09T20:26:44.025Z,1.00
2019-01-09T20:29:13.192Z,1.00
2019-01-09T20:31:42.331Z,0.90
2019-01-09T20:34:11.715Z,1.00
2019-01-09T20:36:41.071Z,1.00
2019-01-09T20:39:10.314Z,1.00
2019-01-09T20:41:39.540Z,1.00
2019-01-09T20:44:09.152Z,1.00
2019-01-09T20:46:38.204Z,1.10
2019-01-09T20:49:07.322Z,1.00
2019-01-09T20:51:36.257Z,1.10
2019-01-09T20:54:05.582Z,1.10
2019-01-09T20:56:34.653Z,1.10
2019-01-09T20:59:04.017Z,1.10
2019-01-09T21:01:32.985Z,1.10
2019-01-09T21:04:02.633Z,1.10
2019-01-09T21:06:31.689Z,1.10
2019-01-09T21:09:00.751Z,1.20
2019-01-09T21:11:30.248Z,1.20
2019-01-09T21:13:59.861Z,1.20
2019-01-09T21:16:29.249Z,1.20
2019-01-09T21:18:58.280Z,1.20
2019-01-09T21:21:27.270Z,1.20
2019-01-09T21:23:56.423Z,1.20
2019-01-09T21:26:25.477Z,1.30
2019-01-09T21:28:54.422Z,1.30
2019-01-09T21:31:23.477Z,1.20
2019-01-09T21:33:52.863Z,1.30
2019-01-09T21:36:22.033Z,1.30
2019-01-09T21:38:51.052Z,1.30
2019-01-09T21:41:20.187Z,1.30
2019-01-09T21:43:49.127Z,1.30
2019-01-09T21:46:18.183Z,1.30
2019-01-09T21:48:47.144Z,1.40
2019-01-09T21:51:16.559Z,1.40
2019-01-09T21:53:45.458Z,1.30
2019-01-09T21:56:14.522Z,1.40
2019-01-09T21:58:43.379Z,1.40
2019-01-09T22:01:12.896Z,1.40
2019-01-09T22:03:42.045Z,1.40
2019-01-09T22:06:11.148Z,1.30
2019-01-09T22:08:40.048Z,1.30
2019-01-09T22:11:09.805Z,1.30
2019-01-09T22:13:38.946Z,1.40
2019-01-09T22:16:08.212Z,1.30
2019-01-09T22:18:38.850Z,1.40
2019-01-09T22:21:08.041Z,1.40
2019-01-09T22:23:36.972Z,1.40
2019-01-09T22:26:06.241Z,1.30
2019-01-09T22:28:35.559Z,1.30
2019-01-09T22:31:04.612Z,1.30
2019-01-09T22:33:37.277Z,1.30
2019-01-09T22:36:06.404Z,1.30
2019-01-09T22:38:35.576Z,1.20
2019-01-09T22:41:04.949Z,1.20
2019-01-09T22:43:34.032Z,1.30
2019-01-09T22:46:03.277Z,1.20
2019-01-09T22:48:32.332Z,1.20
2019-01-09T22:51:01.484Z,1.20
2019-01-09T22:53:30.474Z,1.20
2019-01-09T22:55:59.617Z,1.20
2019-01-09T22:58:28.812Z,1.20
2019-01-09T23:01:14.334Z,1.30
2019-01-09T23:03:43.733Z,1.30
2019-01-09T23:06:12.852Z,1.30
2019-01-09T23:08:41.874Z,1.30
2019-01-09T23:11:11.068Z,1.30
2019-01-09T23:13:40.373Z,1.40
2019-01-09T23:16:10.771Z,1.30
2019-01-09T23:18:39.819Z,1.30
2019-01-09T23:21:08.909Z,1.40
2019-01-09T23:23:38.098Z,1.40
2019-01-09T23:26:07.528Z,1.40
2019-01-09T23:28:36.429Z,1.30
2019-01-09T23:31:05.674Z,1.30
2019-01-09T23:33:35.212Z,1.20
2019-01-09T23:36:04.740Z,1.20
2019-01-09T23:38:34.038Z,1.30
2019-01-09T23:41:03.428Z,1.20
2019-01-09T23:43:32.559Z,1.20
2019-01-09T23:46:01.691Z,1.20
2019-01-09T23:48:30.565Z,1.20
2019-01-09T23:50:59.581Z,1.20
2019-01-09T23:53:28.513Z,1.20
2019-01-09T23:55:57.489Z,1.20
2019-01-09T23:58:26.621Z,1.20
